Time;durP1;ratioP1;P1;durP2;ratioP2;P2;SDS_P1;SDS_P2;PMS_P1;PMS_P2;Temp;Humidity;BMP_temperature;BMP_pressure;BME280_temperature;BME280_humidity;BME280_pressure;Samples;Min_cycle;Max_cycle;Signal;HPM_P1;HPM_P2
2023/09/06 00:01:39;;;;;;;;;;;;;;;22.35;68.46;97544.91;601439;236;62790;-69
2023/09/06 00:04:06;;;;;;;;;;;;;;;22.34;67.85;97541.42;601438;236;64255;-69
2023/09/06 00:06:34;;;;;;;;;;;;;;;22.35;67.78;97531.52;601454;236;66792;-69
2023/09/06 00:09:02;;;;;;;;;;;;;;;22.35;68.05;97539.55;601475;236;63833;-69
2023/09/06 00:11:30;;;;;;;;;;;;;;;22.34;67.93;97541.42;601497;236;64274;-69
2023/09/06 00:13:57;;;;;;;;;;;;;;;22.34;67.78;97536.07;601491;236;64548;-69
2023/09/06 00:16:25;;;;;;;;;;;;;;;22.34;67.80;97541.42;601325;236;62729;-68
2023/09/06 00:18:52;;;;;;;;;;;;;;;22.34;67.92;97543.28;601447;236;68075;-68
2023/09/06 00:21:21;;;;;;;;;;;;;;;22.34;67.68;97545.95;601428;236;66934;-69
2023/09/06 00:23:49;;;;;;;;;;;;;;;22.33;67.84;97550.51;601437;236;62768;-69
2023/09/06 00:26:17;;;;;;;;;;;;;;;22.33;67.61;97547.03;601500;236;66766;-69
2023/09/06 00:28:45;;;;;;;;;;;;;;;22.34;67.81;97540.59;595118;236;69460;-69
2023/09/06 00:31:13;;;;;;;;;;;;;;;22.32;67.48;97540.88;601462;236;66675;-69
2023/09/06 00:33:42;;;;;;;;;;;;;;;22.32;67.51;97543.56;601480;236;65445;-69
2023/09/06 00:36:09;;;;;;;;;;;;;;;22.33;67.86;97539.80;601493;236;66820;-69
2023/09/06 00:38:38;;;;;;;;;;;;;;;22.33;68.25;97542.48;601524;236;62674;-69
2023/09/06 00:41:06;;;;;;;;;;;;;;;22.32;68.12;97543.56;601458;236;66943;-69
2023/09/06 00:43:33;;;;;;;;;;;;;;;22.33;68.24;97539.80;601431;236;64294;-69
2023/09/06 00:46:07;;;;;;;;;;;;;;;22.32;68.98;97538.20;601477;236;65213;-69
2023/09/06 00:48:30;;;;;;;;;;;;;;;22.32;68.20;97532.05;601308;236;66949;-69
2023/09/06 00:50:58;;;;;;;;;;;;;;;22.32;68.12;97524.81;601536;236;64483;-68
2023/09/06 00:53:27;;;;;;;;;;;;;;;22.31;67.49;97520.51;601465;236;62750;-68
2023/09/06 00:55:55;;;;;;;;;;;;;;;22.30;67.62;97532.30;601442;236;64640;-69
2023/09/06 00:58:22;;;;;;;;;;;;;;;22.29;67.72;97528.03;601506;236;66590;-69
2023/09/06 01:00:51;;;;;;;;;;;;;;;22.31;68.77;97536.58;601468;236;64852;-69
2023/09/06 01:03:18;;;;;;;;;;;;;;;22.30;67.84;97521.59;601485;236;67083;-70
2023/09/06 01:05:47;;;;;;;;;;;;;;;22.30;68.37;97534.98;601446;236;64750;-71
2023/09/06 01:08:21;;;;;;;;;;;;;;;22.29;67.55;97517.32;600545;236;65905;-71
2023/09/06 01:10:46;;;;;;;;;;;;;;;22.31;67.58;97530.42;601228;236;66942;-71
2023/09/06 01:13:13;;;;;;;;;;;;;;;22.31;68.44;97525.07;601485;236;66845;-71
2023/09/06 01:15:43;;;;;;;;;;;;;;;22.31;68.07;97523.19;601461;236;62830;-70
2023/09/06 01:18:10;;;;;;;;;;;;;;;22.29;68.45;97522.67;601490;236;64634;-71
2023/09/06 01:20:45;;;;;;;;;;;;;;;22.29;68.27;97530.70;601484;236;64660;-71
2023/09/06 01:23:14;;;;;;;;;;;;;;;22.29;68.26;97536.06;601462;236;63674;-69
2023/09/06 01:25:41;;;;;;;;;;;;;;;22.29;68.85;97519.17;601167;236;66744;-69
2023/09/06 01:28:09;;;;;;;;;;;;;;;22.28;68.34;97530.96;601469;236;67606;-69
2023/09/06 01:30:37;;;;;;;;;;;;;;;22.28;67.73;97531.76;601496;236;65732;-69
2023/09/06 01:33:05;;;;;;;;;;;;;;;22.28;68.13;97531.76;601466;236;68182;-69
2023/09/06 01:35:33;;;;;;;;;;;;;;;22.29;67.33;97530.70;601433;236;66803;-69
2023/09/06 01:38:00;;;;;;;;;;;;;;;22.29;68.26;97533.39;601482;236;65051;-69
2023/09/06 01:40:28;;;;;;;;;;;;;;;22.29;68.08;97537.91;601473;236;65606;-69
2023/09/06 01:42:58;;;;;;;;;;;;;;;22.29;68.27;97529.88;601511;236;66809;-69
2023/09/06 01:45:27;;;;;;;;;;;;;;;22.29;68.64;97528.03;601482;236;60746;-69
2023/09/06 01:47:54;;;;;;;;;;;;;;;22.28;67.70;97534.44;601495;236;66120;-69
2023/09/06 01:50:22;;;;;;;;;;;;;;;22.28;67.61;97533.64;601467;236;66608;-69
2023/09/06 01:52:52;;;;;;;;;;;;;;;22.27;67.75;97535.52;601491;236;64999;-69
2023/09/06 01:55:21;;;;;;;;;;;;;;;22.28;68.00;97529.08;601508;236;67444;-69
2023/09/06 01:57:48;;;;;;;;;;;;;;;22.28;68.27;97531.76;601488;236;64086;-65
2023/09/06 02:00:36;;;;;;;;;;;;;;;22.26;68.28;97544.63;601497;236;65135;-65
2023/09/06 02:02:48;;;;;;;;;;;;;;;22.28;67.83;97533.64;599463;236;67079;-65
2023/09/06 02:05:15;;;;;;;;;;;;;;;22.27;67.53;97532.84;601505;236;64109;-65
2023/09/06 02:07:44;;;;;;;;;;;;;;;22.27;67.98;97542.75;601467;236;65223;-65
2023/09/06 02:10:12;;;;;;;;;;;;;;;22.26;67.75;97533.92;601510;236;66624;-65
2023/09/06 02:12:40;;;;;;;;;;;;;;;22.27;67.79;97538.20;601502;236;66521;-65
2023/09/06 02:15:16;;;;;;;;;;;;;;;22.26;67.86;97536.59;600946;236;65235;-65
2023/09/06 02:17:42;;;;;;;;;;;;;;;22.27;67.52;97530.16;598631;236;64490;-65
2023/09/06 02:20:17;;;;;;;;;;;;;;;22.26;67.61;97525.89;598795;237;67045;-65
2023/09/06 02:22:42;;;;;;;;;;;;;;;22.26;67.46;97525.89;598813;236;63916;-66
2023/09/06 02:25:10;;;;;;;;;;;;;;;22.26;67.79;97533.92;598831;237;64467;-66
2023/09/06 02:27:37;;;;;;;;;;;;;;;22.25;67.89;97529.62;598812;237;64596;-65
2023/09/06 02:30:06;;;;;;;;;;;;;;;22.25;67.62;97526.94;598818;237;65203;-65
2023/09/06 02:32:34;;;;;;;;;;;;;;;22.25;67.04;97532.30;598824;237;64783;-65
2023/09/06 02:35:03;;;;;;;;;;;;;;;22.26;67.34;97533.92;598872;237;66818;-66
2023/09/06 02:37:31;;;;;;;;;;;;;;;22.25;66.95;97532.30;598901;237;62652;-66
2023/09/06 02:39:58;;;;;;;;;;;;;;;22.25;67.22;97528.82;598821;237;65930;-66
2023/09/06 02:42:26;;;;;;;;;;;;;;;22.25;67.93;97529.62;598823;237;64488;-66
2023/09/06 02:44:54;;;;;;;;;;;;;;;22.25;68.11;97532.30;598818;237;65091;-66
2023/09/06 02:47:28;;;;;;;;;;;;;;;22.24;67.73;97530.70;598845;237;65624;-66
2023/09/06 02:49:55;;;;;;;;;;;;;;;22.24;67.77;97541.41;598773;236;66789;-67
2023/09/06 02:52:30;;;;;;;;;;;;;;;22.25;67.67;97536.85;598829;237;63079;-67
2023/09/06 02:54:59;;;;;;;;;;;;;;;22.25;67.74;97539.53;598838;237;66809;-65
2023/09/06 02:57:27;;;;;;;;;;;;;;;22.24;68.17;97535.26;598828;237;66769;-65
2023/09/06 02:59:55;;;;;;;;;;;;;;;22.23;67.98;97539.78;598808;237;65210;-65
2023/09/06 03:02:22;;;;;;;;;;;;;;;22.23;67.22;97544.34;598863;237;67097;-65
2023/09/06 03:05:03;;;;;;;;;;;;;;;22.23;67.84;97545.13;598810;237;65056;-65
2023/09/06 03:07:26;;;;;;;;;;;;;;;22.23;67.44;97539.78;598626;236;63079;-65
2023/09/06 03:09:53;;;;;;;;;;;;;;;22.24;67.64;97549.44;598768;237;67434;-65
2023/09/06 03:12:21;;;;;;;;;;;;;;;22.23;67.72;97547.81;598796;237;64528;-65
2023/09/06 03:14:50;;;;;;;;;;;;;;;22.22;67.53;97540.86;598858;235;65626;-65
2023/09/06 03:17:18;;;;;;;;;;;;;;;22.23;67.05;97544.34;601488;236;67238;-66
2023/09/06 03:19:53;;;;;;;;;;;;;;;22.22;67.39;97546.22;601409;236;67738;-65
2023/09/06 03:22:20;;;;;;;;;;;;;;;22.22;67.41;97543.54;598173;236;62019;-65
2023/09/06 03:24:48;;;;;;;;;;;;;;;22.22;68.17;97543.54;596648;236;64543;-65
2023/09/06 03:27:16;;;;;;;;;;;;;;;22.22;67.55;97540.86;594873;238;65408;-65
2023/09/06 03:29:44;;;;;;;;;;;;;;;22.21;66.69;97541.11;594251;236;65829;-65
2023/09/06 03:32:13;;;;;;;;;;;;;;;22.22;67.04;97543.54;594726;236;67272;-69
2023/09/06 03:34:40;;;;;;;;;;;;;;;22.22;67.58;97545.42;600792;236;63322;-69
2023/09/06 03:37:11;;;;;;;;;;;;;;;22.21;67.58;97541.94;597601;236;63761;-69
2023/09/06 03:39:41;;;;;;;;;;;;;;;22.21;66.80;97549.98;598988;236;64821;-70
2023/09/06 03:42:09;;;;;;;;;;;;;;;22.21;66.84;97539.27;594574;236;64932;-70
2023/09/06 03:44:37;;;;;;;;;;;;;;;22.22;67.33;97548.09;594467;236;65838;-70
2023/09/06 03:47:13;;;;;;;;;;;;;;;22.20;67.17;97545.67;594852;238;67405;-70
2023/09/06 03:49:36;;;;;;;;;;;;;;;22.21;67.30;97541.94;594635;238;67067;-69
2023/09/06 03:52:04;;;;;;;;;;;;;;;22.21;67.44;97547.30;594840;238;63537;-69
2023/09/06 03:54:35;;;;;;;;;;;;;;;22.20;67.48;97548.34;594855;238;64812;-69
2023/09/06 03:57:03;;;;;;;;;;;;;;;22.20;67.73;97548.34;594893;238;64568;-69
2023/09/06 03:59:38;;;;;;;;;;;;;;;22.21;67.66;97551.83;594828;238;62995;-69
2023/09/06 04:02:13;;;;;;;;;;;;;;;22.20;67.38;97551.02;594864;238;68047;-69
2023/09/06 04:04:38;;;;;;;;;;;;;;;22.21;67.68;97554.50;594754;238;65136;-70
2023/09/06 04:07:07;;;;;;;;;;;;;;;22.20;67.68;97559.05;594889;238;65334;-70
2023/09/06 04:09:37;;;;;;;;;;;;;;;22.21;67.35;97555.33;594859;238;67092;-70
2023/09/06 04:12:08;;;;;;;;;;;;;;;22.20;67.19;97563.61;594877;238;66958;-70
2023/09/06 04:14:35;;;;;;;;;;;;;;;22.20;67.72;97563.61;594851;238;65174;-69
2023/09/06 04:17:07;;;;;;;;;;;;;;;22.19;67.18;97562.81;594859;238;67890;-70
2023/09/06 04:19:37;;;;;;;;;;;;;;;22.19;67.47;97554.78;588588;238;67931;-70
2023/09/06 04:22:04;;;;;;;;;;;;;;;22.19;67.07;97553.98;594869;238;62747;-70
2023/09/06 04:24:35;;;;;;;;;;;;;;;22.19;67.54;97548.63;594836;238;44872;-70
2023/09/06 04:27:04;;;;;;;;;;;;;;;22.20;67.66;97551.02;594914;238;67153;-70
2023/09/06 04:29:32;;;;;;;;;;;;;;;22.19;67.67;97537.92;594863;238;65902;-70
2023/09/06 04:32:00;;;;;;;;;;;;;;;22.18;67.55;97545.16;588630;238;68725;-70
2023/09/06 04:34:28;;;;;;;;;;;;;;;22.19;66.99;97549.43;594862;238;67493;-70
2023/09/06 04:36:55;;;;;;;;;;;;;;;22.19;67.55;97552.11;594857;238;64858;-70
2023/09/06 04:39:28;;;;;;;;;;;;;;;22.19;67.72;97551.31;594918;238;65970;-70
2023/09/06 04:41:52;;;;;;;;;;;;;;;22.19;66.78;97553.98;594744;238;66890;-70
2023/09/06 04:44:24;;;;;;;;;;;;;;;22.18;67.27;97553.19;594871;238;65759;-70
2023/09/06 04:46:50;;;;;;;;;;;;;;;22.19;67.06;97546.75;594799;238;67934;-66
2023/09/06 04:49:17;;;;;;;;;;;;;;;22.17;67.51;97555.00;594822;238;65356;-66
2023/09/06 04:51:45;;;;;;;;;;;;;;;22.17;67.04;97555.00;594931;238;63522;-69
2023/09/06 04:54:12;;;;;;;;;;;;;;;22.18;67.38;97558.54;594854;238;67342;-66
2023/09/06 04:56:40;;;;;;;;;;;;;;;22.16;67.38;97556.09;594879;238;64446;-66
2023/09/06 04:59:08;;;;;;;;;;;;;;;22.17;67.42;97562.23;594880;238;62562;-66
2023/09/06 05:01:36;;;;;;;;;;;;;;;22.17;67.81;97563.03;594868;238;67414;-66
2023/09/06 05:04:04;;;;;;;;;;;;;;;22.17;67.45;97570.27;594913;238;67013;-66
2023/09/06 05:06:31;;;;;;;;;;;;;;;22.17;67.51;97570.27;594894;238;62640;-66
2023/09/06 05:08:59;;;;;;;;;;;;;;;22.17;67.02;97570.27;594853;238;65629;-66
2023/09/06 05:11:27;;;;;;;;;;;;;;;22.17;67.50;97563.03;594869;238;66936;-66
2023/09/06 05:13:55;;;;;;;;;;;;;;;22.16;67.64;97561.44;594835;238;65923;-66
2023/09/06 05:16:23;;;;;;;;;;;;;;;22.16;67.25;97557.97;591924;238;66177;-66
2023/09/06 05:18:52;;;;;;;;;;;;;;;22.17;67.96;97562.23;596710;238;67465;-70
2023/09/06 05:21:22;;;;;;;;;;;;;;;22.16;67.28;97572.14;596660;238;44714;-70
2023/09/06 05:23:49;;;;;;;;;;;;;;;22.17;67.80;97570.27;596672;235;67730;-70
2023/09/06 05:26:17;;;;;;;;;;;;;;;22.16;67.81;97571.34;596708;238;66998;-70
2023/09/06 05:28:48;;;;;;;;;;;;;;;22.16;67.86;97576.70;596648;238;43299;-70
2023/09/06 05:31:18;;;;;;;;;;;;;;;22.15;67.14;97575.91;596730;238;67934;-70
2023/09/06 05:33:46;;;;;;;;;;;;;;;22.16;67.54;97576.70;596672;238;67424;-69
2023/09/06 05:36:15;;;;;;;;;;;;;;;22.15;67.40;97573.23;596681;238;65782;-69
2023/09/06 05:38:42;;;;;;;;;;;;;;;22.16;67.89;97576.70;596660;238;64954;-69
2023/09/06 05:41:10;;;;;;;;;;;;;;;22.15;67.33;97569.72;596634;238;65805;-70
2023/09/06 05:43:39;;;;;;;;;;;;;;;22.16;67.67;97587.41;596673;238;65733;-69
2023/09/06 05:46:07;;;;;;;;;;;;;;;22.15;67.54;97577.75;596591;238;67900;-70
2023/09/06 05:48:34;;;;;;;;;;;;;;;22.15;67.30;97577.75;596279;238;67029;-71
2023/09/06 05:51:02;;;;;;;;;;;;;;;22.14;67.29;97574.27;596472;238;61646;-71
2023/09/06 05:53:29;;;;;;;;;;;;;;;22.16;67.65;97579.38;596677;238;67257;-71
2023/09/06 05:55:58;;;;;;;;;;;;;;;22.16;67.74;97579.38;598416;235;66316;-69
2023/09/06 05:58:26;;;;;;;;;;;;;;;22.14;66.57;97574.27;603297;233;64895;-69
2023/09/06 06:00:55;;;;;;;;;;;;;;;22.14;67.25;97579.63;602692;235;67017;-69
2023/09/06 06:03:24;;;;;;;;;;;;;;;22.14;67.84;97578.83;595264;238;67208;-69
2023/09/06 06:05:52;;;;;;;;;;;;;;;22.14;67.73;97576.95;595337;238;62688;-69
2023/09/06 06:08:19;;;;;;;;;;;;;;;22.14;67.84;97587.66;591527;240;64713;-69
2023/09/06 06:10:47;;;;;;;;;;;;;;;22.15;67.33;97591.14;610802;232;66886;-68
2023/09/06 06:13:14;;;;;;;;;;;;;;;22.14;67.13;97590.34;610766;232;64885;-69
2023/09/06 06:15:42;;;;;;;;;;;;;;;22.15;67.34;97588.45;610443;232;64411;-69
2023/09/06 06:18:10;;;;;;;;;;;;;;;22.13;65.96;97595.97;610001;232;65635;-69
2023/09/06 06:20:37;;;;;;;;;;;;;;;22.13;68.41;97593.30;610046;232;62862;-69
2023/09/06 06:23:05;;;;;;;;;;;;;;;22.13;68.00;97593.30;610005;232;64723;-69
2023/09/06 06:25:32;;;;;;;;;;;;;;;22.14;68.44;97592.22;609973;232;66996;-69
2023/09/06 06:28:00;;;;;;;;;;;;;;;22.15;67.80;97607.20;610006;232;64931;-69
2023/09/06 06:30:27;;;;;;;;;;;;;;;22.15;68.76;97618.73;610017;232;67250;-69
2023/09/06 06:33:00;;;;;;;;;;;;;;;22.16;68.61;97625.69;609815;232;64613;-69
2023/09/06 06:35:25;;;;;;;;;;;;;;;22.16;68.85;97614.18;609976;232;63773;-69
2023/09/06 06:37:53;;;;;;;;;;;;;;;22.18;69.08;97620.11;609993;232;64832;-69
2023/09/06 06:40:21;;;;;;;;;;;;;;;22.16;67.88;97620.33;609920;232;67253;-69
2023/09/06 06:42:50;;;;;;;;;;;;;;;22.19;68.61;97620.91;609981;232;64904;-69
2023/09/06 06:45:17;;;;;;;;;;;;;;;22.17;68.37;97623.81;611294;232;67085;-69
2023/09/06 06:47:45;;;;;;;;;;;;;;;22.19;67.88;97626.27;611314;232;67087;-69
2023/09/06 06:50:13;;;;;;;;;;;;;;;22.20;67.35;97628.66;611366;232;62710;-69
2023/09/06 06:52:44;;;;;;;;;;;;;;;22.20;66.67;97630.54;611379;232;67392;-69
2023/09/06 06:55:10;;;;;;;;;;;;;;;22.21;67.84;97634.81;610399;231;64601;-69
2023/09/06 06:57:37;;;;;;;;;;;;;;;22.21;68.16;97629.46;611126;232;65031;-69
2023/09/06 07:00:05;;;;;;;;;;;;;;;22.20;67.34;97631.34;611114;232;67237;-69
2023/09/06 07:02:34;;;;;;;;;;;;;;;22.20;67.16;97631.34;611246;232;67030;-69
2023/09/06 07:05:02;;;;;;;;;;;;;;;22.22;67.23;97637.24;611335;232;65009;-69
2023/09/06 07:07:29;;;;;;;;;;;;;;;22.21;67.02;97642.84;611364;232;64876;-68
2023/09/06 07:09:57;;;;;;;;;;;;;;;22.21;67.24;97638.32;611437;232;66638;-70
2023/09/06 07:12:24;;;;;;;;;;;;;;;22.22;67.99;97642.59;611450;232;64913;-68
2023/09/06 07:14:52;;;;;;;;;;;;;;;22.21;68.42;97638.32;611341;232;67049;-69
2023/09/06 07:17:20;;;;;;;;;;;;;;;22.22;67.77;97639.92;612202;231;68081;-68
2023/09/06 07:19:47;;;;;;;;;;;;;;;22.21;67.46;97643.67;612245;231;62679;-73
2023/09/06 07:22:15;;;;;;;;;;;;;;;22.23;67.47;97643.40;612182;231;64848;-70
2023/09/06 07:24:42;;;;;;;;;;;;;;;22.23;65.16;97635.36;612265;231;64833;-70
2023/09/06 07:27:10;;;;;;;;;;;;;;;22.24;67.21;97637.79;612226;231;62785;-69
2023/09/06 07:29:37;;;;;;;;;;;;;;;22.24;68.91;97635.11;612179;231;64907;-68
2023/09/06 07:32:05;;;;;;;;;;;;;;;22.25;65.66;97627.88;612243;231;64775;-69
2023/09/06 07:34:32;;;;;;;;;;;;;;;22.28;68.52;97628.14;612264;231;62635;-69
2023/09/06 07:37:00;;;;;;;;;;;;;;;22.31;68.69;97626.81;612222;231;66927;-69
2023/09/06 07:39:27;;;;;;;;;;;;;;;22.32;69.18;97631.13;612213;231;66937;-69
2023/09/06 07:41:56;;;;;;;;;;;;;;;22.33;69.17;97633.52;612208;231;62743;-70
2023/09/06 07:44:23;;;;;;;;;;;;;;;22.34;69.36;97628.96;612159;231;67207;-69
2023/09/06 07:46:51;;;;;;;;;;;;;;;22.35;69.34;97626.03;612159;231;67001;-69
2023/09/06 07:49:21;;;;;;;;;;;;;;;22.35;69.26;97623.36;612225;231;65033;-69
2023/09/06 07:51:49;;;;;;;;;;;;;;;22.36;69.29;97619.59;612233;231;67429;-70
2023/09/06 07:54:16;;;;;;;;;;;;;;;22.37;69.21;97615.04;612228;231;66911;-70
2023/09/06 07:56:47;;;;;;;;;;;;;;;22.37;69.00;97615.87;612189;231;63833;-70
2023/09/06 07:59:13;;;;;;;;;;;;;;;22.37;68.75;97618.55;612157;230;64776;-70
2023/09/06 08:01:41;;;;;;;;;;;;;;;22.37;68.56;97621.22;612237;231;64965;-70
2023/09/06 08:04:10;;;;;;;;;;;;;;;22.39;69.71;97613.70;612245;231;64862;-70
2023/09/06 08:06:37;;;;;;;;;;;;;;;22.39;70.06;97619.06;612212;231;67031;-70
2023/09/06 08:09:05;;;;;;;;;;;;;;;22.40;70.30;97619.89;612217;231;67810;-69
2023/09/06 08:11:32;;;;;;;;;;;;;;;22.40;70.21;97614.53;612141;231;62898;-70
2023/09/06 08:14:00;;;;;;;;;;;;;;;22.39;70.02;97627.09;612166;231;64899;-70
2023/09/06 08:16:27;;;;;;;;;;;;;;;22.41;70.11;97623.37;612235;231;66963;-70
2023/09/06 08:18:56;;;;;;;;;;;;;;;22.42;69.72;97627.64;612148;231;64930;-70
2023/09/06 08:21:23;;;;;;;;;;;;;;;22.41;69.70;97626.05;612215;231;64520;-70
2023/09/06 08:23:51;;;;;;;;;;;;;;;22.42;69.77;97622.29;612193;231;64541;-69
2023/09/06 08:26:19;;;;;;;;;;;;;;;22.42;69.42;97622.29;612147;231;64721;-69
2023/09/06 08:28:47;;;;;;;;;;;;;;;22.42;68.60;97623.09;612265;231;67019;-69
2023/09/06 08:31:14;;;;;;;;;;;;;;;22.43;68.74;97619.36;612150;231;67230;-70
2023/09/06 08:33:41;;;;;;;;;;;;;;;22.43;68.79;97618.56;612193;231;64959;-71
2023/09/06 08:36:09;;;;;;;;;;;;;;;22.44;68.99;97620.16;612235;231;67995;-70
2023/09/06 08:38:36;;;;;;;;;;;;;;;22.44;68.73;97617.48;612178;231;66878;-70
2023/09/06 08:41:07;;;;;;;;;;;;;;;22.44;69.52;97612.92;612151;231;64864;-70
2023/09/06 08:43:36;;;;;;;;;;;;;;;22.46;68.70;97607.31;612276;231;67850;-69
2023/09/06 08:46:08;;;;;;;;;;;;;;;22.46;69.22;97615.34;611826;230;67337;-70
2023/09/06 08:48:38;;;;;;;;;;;;;;;22.46;69.45;97607.31;612256;230;65190;-70
2023/09/06 08:51:05;;;;;;;;;;;;;;;22.45;68.63;97614.52;612286;231;64724;-69
2023/09/06 08:53:34;;;;;;;;;;;;;;;22.46;68.48;97616.14;612296;231;66882;-69
2023/09/06 08:56:03;;;;;;;;;;;;;;;22.45;68.60;97613.72;612339;231;64886;-70
2023/09/06 08:58:31;;;;;;;;;;;;;;;22.43;67.60;97610.52;607523;231;65277;-70
2023/09/06 09:00:59;;;;;;;;;;;;;;;22.42;66.76;97611.58;597379;237;65029;-69
2023/09/06 09:03:26;;;;;;;;;;;;;;;22.41;66.39;97610.78;602371;235;62759;-69
2023/09/06 09:05:55;;;;;;;;;;;;;;;22.42;68.32;97606.22;603418;235;64795;-69
2023/09/06 09:08:23;;;;;;;;;;;;;;;22.41;69.06;97609.98;597091;237;64741;-69
2023/09/06 09:10:52;;;;;;;;;;;;;;;22.41;68.86;97607.30;597105;237;63595;-69
2023/09/06 09:13:19;;;;;;;;;;;;;;;22.40;68.98;97617.21;596459;235;64857;-69
2023/09/06 09:15:47;;;;;;;;;;;;;;;22.39;69.05;97613.70;601119;234;67022;-68
2023/09/06 09:18:15;;;;;;;;;;;;;;;22.39;69.20;97612.91;602509;234;62894;-68
2023/09/06 09:20:43;;;;;;;;;;;;;;;22.38;69.24;97609.43;599205;237;67555;-69
2023/09/06 09:23:16;;;;;;;;;;;;;;;22.38;69.20;97617.47;599284;237;65019;-68
2023/09/06 09:25:50;;;;;;;;;;;;;;;22.38;69.33;97611.31;599244;237;65310;-69
2023/09/06 09:28:18;;;;;;;;;;;;;;;22.35;69.29;97607.28;599239;237;67275;-69
2023/09/06 09:30:49;;;;;;;;;;;;;;;22.36;69.12;97614.24;599228;237;65138;-69
2023/09/06 09:33:16;;;;;;;;;;;;;;;22.36;69.34;97622.28;599240;237;65248;-69
2023/09/06 09:35:44;;;;;;;;;;;;;;;22.36;69.68;97613.44;599291;237;67038;-70
2023/09/06 09:38:12;;;;;;;;;;;;;;;22.34;69.27;97611.05;599269;237;66651;-70
2023/09/06 09:40:39;;;;;;;;;;;;;;;22.35;69.50;97609.97;599248;237;65033;-70
2023/09/06 09:43:07;;;;;;;;;;;;;;;22.34;69.78;97611.05;599213;237;67076;-68
2023/09/06 09:45:43;;;;;;;;;;;;;;;22.34;69.95;97613.72;599223;237;67378;-68
2023/09/06 09:48:11;;;;;;;;;;;;;;;22.35;70.26;97607.28;599205;237;67535;-68
2023/09/06 09:50:41;;;;;;;;;;;;;;;22.35;69.20;97603.81;599277;237;67092;-66
2023/09/06 09:53:09;;;;;;;;;;;;;;;22.34;70.02;97611.05;599264;237;66981;-66
2023/09/06 09:55:38;;;;;;;;;;;;;;;22.34;70.19;97611.05;599205;237;65094;-64
2023/09/06 09:58:07;;;;;;;;;;;;;;;22.35;70.44;97606.48;599147;236;67216;-65
2023/09/06 10:00:39;;;;;;;;;;;;;;;22.35;70.11;97614.52;599264;237;66862;-68
2023/09/06 10:03:04;;;;;;;;;;;;;;;22.34;70.07;97619.08;599216;237;64941;-66
2023/09/06 10:05:32;;;;;;;;;;;;;;;22.34;69.41;97618.25;599273;237;64615;-65
2023/09/06 10:08:01;;;;;;;;;;;;;;;22.34;69.99;97620.93;599221;237;64825;-65
2023/09/06 10:10:28;;;;;;;;;;;;;;;22.35;70.44;97620.67;599209;237;65273;-68
2023/09/06 10:12:57;;;;;;;;;;;;;;;22.34;70.36;97616.41;599250;237;67139;-67
2023/09/06 10:15:24;;;;;;;;;;;;;;;22.34;69.83;97612.89;599260;237;66702;-67
2023/09/06 10:17:53;;;;;;;;;;;;;;;22.33;69.69;97612.09;599286;237;65108;-65
2023/09/06 10:20:27;;;;;;;;;;;;;;;22.33;69.35;97612.09;599243;237;67135;-66
2023/09/06 10:22:54;;;;;;;;;;;;;;;22.33;69.40;97600.59;599023;237;66846;-68
2023/09/06 10:25:23;;;;;;;;;;;;;;;22.34;69.90;97603.02;599213;237;66061;-68
2023/09/06 10:27:59;;;;;;;;;;;;;;;22.34;69.94;97589.62;599221;237;65191;-66
2023/09/06 10:30:28;;;;;;;;;;;;;;;22.34;70.07;97594.98;599082;237;64667;-67
2023/09/06 10:32:52;;;;;;;;;;;;;;;22.33;69.87;97600.59;599045;237;65212;-67
2023/09/06 10:35:24;;;;;;;;;;;;;;;22.32;69.59;97598.98;599205;237;67082;-68
2023/09/06 10:38:02;;;;;;;;;;;;;;;22.33;69.59;97604.06;599195;237;66921;-67
2023/09/06 10:40:31;;;;;;;;;;;;;;;22.33;70.10;97598.70;599240;237;65273;-67
2023/09/06 10:42:58;;;;;;;;;;;;;;;22.33;69.45;97597.91;597144;237;67152;-67
2023/09/06 10:45:26;;;;;;;;;;;;;;;22.34;69.18;97599.50;599243;237;65797;-68
2023/09/06 10:47:55;;;;;;;;;;;;;;;22.33;69.57;97600.59;599228;237;65063;-68
2023/09/06 10:50:23;;;;;;;;;;;;;;;22.33;69.54;97597.91;598587;237;67099;-68
2023/09/06 10:52:54;;;;;;;;;;;;;;;22.33;69.43;97601.38;599239;237;66713;-68
2023/09/06 10:55:23;;;;;;;;;;;;;;;22.33;69.33;97603.27;599204;237;62768;-68
2023/09/06 10:57:56;;;;;;;;;;;;;;;22.34;69.78;97591.47;599277;237;67121;-68
2023/09/06 11:00:30;;;;;;;;;;;;;;;22.33;69.52;97592.55;599199;237;65341;-67
2023/09/06 11:03:13;;;;;;;;;;;;;;;22.33;69.24;97595.23;599087;237;64967;-65
2023/09/06 11:05:42;;;;;;;;;;;;;;;22.33;69.48;97587.20;599235;237;64953;-65
2023/09/06 11:08:13;;;;;;;;;;;;;;;22.33;69.73;97582.64;599221;237;67046;-65
2023/09/06 11:10:42;;;;;;;;;;;;;;;22.33;69.52;97584.52;598813;237;65784;-65
2023/09/06 11:13:10;;;;;;;;;;;;;;;22.31;69.62;97574.06;599298;237;67058;-66
2023/09/06 11:15:38;;;;;;;;;;;;;;;22.32;69.37;97578.37;599176;237;67081;-66
2023/09/06 11:18:06;;;;;;;;;;;;;;;22.33;69.81;97565.78;599258;237;64877;-66
2023/09/06 11:20:34;;;;;;;;;;;;;;;22.33;69.64;97568.45;599235;237;66556;-65
2023/09/06 11:23:02;;;;;;;;;;;;;;;22.32;69.85;97562.30;599185;237;64616;-66
2023/09/06 11:25:34;;;;;;;;;;;;;;;22.33;69.93;97563.90;599212;237;63810;-65
2023/09/06 11:28:03;;;;;;;;;;;;;;;22.33;69.51;97561.22;599247;237;65397;-65
2023/09/06 11:30:33;;;;;;;;;;;;;;;22.33;69.85;97563.09;598688;237;64913;-65
2023/09/06 11:33:07;;;;;;;;;;;;;;;22.32;69.68;97554.27;599217;237;65390;-65
2023/09/06 11:35:33;;;;;;;;;;;;;;;22.33;69.70;97549.71;598973;237;67217;-64
2023/09/06 11:38:02;;;;;;;;;;;;;;;22.33;69.70;97549.71;599218;237;66885;-65
2023/09/06 11:40:33;;;;;;;;;;;;;;;22.33;70.04;97544.36;599285;237;65063;-65
2023/09/06 11:43:04;;;;;;;;;;;;;;;22.33;69.84;97542.48;599018;237;67067;-66
2023/09/06 11:45:35;;;;;;;;;;;;;;;22.32;69.84;97537.41;599133;237;67010;-66
2023/09/06 11:48:08;;;;;;;;;;;;;;;22.33;70.26;97533.64;599183;237;66043;-66
2023/09/06 11:50:38;;;;;;;;;;;;;;;22.33;70.02;97523.73;599182;237;65023;-65
2023/09/06 11:53:08;;;;;;;;;;;;;;;22.32;69.87;97532.84;599199;237;67238;-65
2023/09/06 11:55:45;;;;;;;;;;;;;;;22.32;70.10;97522.14;599198;237;62751;-65
2023/09/06 11:58:20;;;;;;;;;;;;;;;22.32;70.24;97524.81;599207;237;67272;-64
2023/09/06 12:04:15;;;;;;;;;;;;;;;22.32;70.29;97522.14;599318;237;41123;-65
2023/09/06 12:06:41;;;;;;;;;;;;;;;22.31;70.29;97515.16;599108;237;67457;-64
2023/09/06 12:09:12;;;;;;;;;;;;;;;22.32;70.24;97505.27;599245;237;64696;-64
2023/09/06 12:11:42;;;;;;;;;;;;;;;22.30;69.47;97516.23;599221;237;63011;-65
2023/09/06 12:14:10;;;;;;;;;;;;;;;22.31;69.42;97517.83;599268;237;64923;-65
2023/09/06 12:16:38;;;;;;;;;;;;;;;22.32;69.62;97511.42;599146;237;67321;-65
2023/09/06 12:19:05;;;;;;;;;;;;;;;22.31;69.67;97504.45;599215;237;62771;-64
2023/09/06 12:21:34;;;;;;;;;;;;;;;22.32;69.69;97515.98;599221;237;65100;-64
2023/09/06 12:24:01;;;;;;;;;;;;;;;22.32;69.63;97511.42;599258;237;66996;-64
2023/09/06 12:26:29;;;;;;;;;;;;;;;22.33;69.63;97512.22;599232;237;62688;-65
2023/09/06 12:28:57;;;;;;;;;;;;;;;22.32;69.69;97506.07;599288;237;64858;-64
2023/09/06 12:31:24;;;;;;;;;;;;;;;22.32;69.45;97497.24;599249;237;64842;-65
2023/09/06 12:33:52;;;;;;;;;;;;;;;22.33;69.61;97507.67;599229;237;62789;-64
2023/09/06 12:36:19;;;;;;;;;;;;;;;22.33;69.58;97504.19;599195;237;64577;-64
2023/09/06 12:38:47;;;;;;;;;;;;;;;22.32;69.68;97495.36;599240;237;64797;-64
2023/09/06 12:41:15;;;;;;;;;;;;;;;22.33;69.56;97502.31;599272;237;64884;-64
2023/09/06 12:43:42;;;;;;;;;;;;;;;22.33;68.95;97502.31;599231;237;67294;-64
2023/09/06 12:46:14;;;;;;;;;;;;;;;22.33;69.49;97494.28;599241;237;64852;-65
2023/09/06 12:48:41;;;;;;;;;;;;;;;22.33;69.06;97493.48;599097;237;62942;-64
2023/09/06 12:51:08;;;;;;;;;;;;;;;22.34;69.77;97495.91;599250;237;64604;-64
2023/09/06 12:53:36;;;;;;;;;;;;;;;22.34;69.32;97493.23;599275;237;65540;-64
2023/09/06 12:56:04;;;;;;;;;;;;;;;22.35;69.45;97477.96;599231;237;64852;-65
2023/09/06 12:58:32;;;;;;;;;;;;;;;22.34;69.36;97481.69;599247;237;65142;-65